createdAt,value
2018-05-04T00:01:06.322Z,1.57
2018-05-04T00:03:34.730Z,1.60
2018-05-04T00:06:03.093Z,1.67
2018-05-04T00:08:31.467Z,1.53
2018-05-04T00:10:59.859Z,1.47
2018-05-04T00:13:28.218Z,1.27
2018-05-04T00:15:56.596Z,1.70
2018-05-04T00:18:24.994Z,1.37
2018-05-04T00:20:53.353Z,1.50
2018-05-04T00:23:21.762Z,1.77
2018-05-04T00:25:50.026Z,1.70
2018-05-04T00:28:18.555Z,1.70
2018-05-04T00:30:46.894Z,1.63
2018-05-04T00:33:15.199Z,1.73
2018-05-04T00:35:43.626Z,1.80
2018-05-04T00:38:12.016Z,1.47
2018-05-04T00:40:40.703Z,1.33
2018-05-04T00:43:09.074Z,1.43
2018-05-04T00:45:37.449Z,1.27
2018-05-04T00:48:05.845Z,1.70
2018-05-04T00:50:34.101Z,1.23
2018-05-04T00:53:02.622Z,1.43
2018-05-04T00:55:31.285Z,1.50
2018-05-04T00:57:59.780Z,1.60
2018-05-04T01:00:28.027Z,1.13
2018-05-04T01:02:56.405Z,1.40
2018-05-04T01:05:24.726Z,1.57
2018-05-04T01:07:53.020Z,1.53
2018-05-04T01:10:21.283Z,1.50
2018-05-04T01:12:49.622Z,1.33
2018-05-04T01:15:18.008Z,1.50
2018-05-04T01:17:46.269Z,1.30
2018-05-04T01:20:14.718Z,1.67
2018-05-04T01:22:43.175Z,1.37
2018-05-04T01:25:11.559Z,1.40
2018-05-04T01:27:40.142Z,1.27
2018-05-04T01:30:08.420Z,1.33
2018-05-04T01:32:36.663Z,1.27
2018-05-04T01:35:04.974Z,1.53
2018-05-04T01:37:33.413Z,1.20
2018-05-04T01:40:01.806Z,1.70
2018-05-04T01:42:30.101Z,1.20
2018-05-04T01:44:58.387Z,1.10
2018-05-04T01:47:26.902Z,1.20
2018-05-04T01:49:55.942Z,1.10
2018-05-04T01:52:24.238Z,1.20
2018-05-04T01:54:52.631Z,1.20
2018-05-04T01:57:21.076Z,1.40
2018-05-04T01:59:49.741Z,1.33
2018-05-04T02:02:18.135Z,1.10
2018-05-04T02:04:46.401Z,1.50
2018-05-04T02:07:14.905Z,1.30
2018-05-04T02:09:43.175Z,1.00
2018-05-04T02:12:11.444Z,1.10
2018-05-04T02:14:39.701Z,1.40
2018-05-04T02:17:08.089Z,1.27
2018-05-04T02:19:36.358Z,1.20
2018-05-04T02:22:04.617Z,1.30
2018-05-04T02:24:33.254Z,1.20
2018-05-04T02:27:01.866Z,1.30
2018-05-04T02:29:30.305Z,1.10
2018-05-04T02:31:58.939Z,1.30
2018-05-04T02:34:27.687Z,1.10
2018-05-04T02:36:56.050Z,1.40
2018-05-04T02:39:24.305Z,1.10
2018-05-04T02:41:52.822Z,1.10
2018-05-04T02:44:21.327Z,1.13
2018-05-04T02:46:49.570Z,1.20
2018-05-04T02:49:17.958Z,1.23
2018-05-04T02:51:46.247Z,1.33
2018-05-04T02:54:14.729Z,1.20
2018-05-04T02:56:43.041Z,1.20
2018-05-04T02:59:12.066Z,1.10
2018-05-04T03:01:40.317Z,0.93
2018-05-04T03:04:08.839Z,1.10
2018-05-04T03:06:37.184Z,1.40
2018-05-04T03:09:06.231Z,1.03
2018-05-04T03:11:34.477Z,1.17
2018-05-04T03:14:02.901Z,0.90
2018-05-04T03:16:31.638Z,1.30
2018-05-04T03:19:00.044Z,1.00
2018-05-04T03:21:28.358Z,1.23
2018-05-04T03:23:56.752Z,1.10
2018-05-04T03:26:26.091Z,1.20
2018-05-04T03:28:54.478Z,1.10
2018-05-04T03:31:22.747Z,1.30
2018-05-04T03:33:51.159Z,1.00
2018-05-04T03:36:19.501Z,0.93
2018-05-04T03:38:47.966Z,1.10
2018-05-04T03:41:16.368Z,1.10
2018-05-04T03:43:44.714Z,1.00
2018-05-04T03:46:13.450Z,0.90
2018-05-04T03:48:41.882Z,0.90
2018-05-04T03:51:10.159Z,1.20
2018-05-04T03:53:38.806Z,0.90
2018-05-04T03:56:07.079Z,1.03
2018-05-04T03:58:47.079Z,0.97
2018-05-04T04:01:27.087Z,0.97
2018-05-04T04:04:16.179Z,0.93
2018-05-04T04:06:44.489Z,1.00
2018-05-04T04:09:12.763Z,0.90
2018-05-04T04:11:41.171Z,0.90
2018-05-04T04:14:09.471Z,0.80
2018-05-04T04:16:38.159Z,0.80
2018-05-04T04:19:06.526Z,0.90
2018-05-04T04:21:35.237Z,1.10
2018-05-04T04:24:03.673Z,1.00
2018-05-04T04:26:31.939Z,0.90
2018-05-04T04:29:00.658Z,0.97
2018-05-04T04:31:29.117Z,0.90
2018-05-04T04:33:57.451Z,1.20
2018-05-04T04:36:25.858Z,0.80
2018-05-04T04:38:54.275Z,0.80
2018-05-04T04:41:22.554Z,0.90
2018-05-04T04:43:50.819Z,1.10
2018-05-04T04:46:19.378Z,1.27
2018-05-04T04:48:48.386Z,1.03
2018-05-04T04:51:16.806Z,1.27
2018-05-04T04:53:45.127Z,0.80
2018-05-04T04:56:13.510Z,1.10
2018-05-04T04:58:41.906Z,1.10
2018-05-04T05:01:10.226Z,0.90
2018-05-04T05:03:39.253Z,1.10
2018-05-04T05:06:07.637Z,1.00
2018-05-04T05:08:53.196Z,1.03
2018-05-04T05:11:22.292Z,1.20
2018-05-04T05:13:51.521Z,1.23
2018-05-04T05:16:19.914Z,1.20
2018-05-04T05:18:48.507Z,1.80
2018-05-04T05:21:30.920Z,5.50
2018-05-04T05:24:11.906Z,3.70
2018-05-04T05:26:49.449Z,7.23
2018-05-04T05:29:22.025Z,15.87
2018-05-04T05:31:51.638Z,36.83
2018-05-04T05:34:22.717Z,48.47
2018-05-04T05:36:51.587Z,57.97
2018-05-04T05:39:20.155Z,67.80
2018-05-04T05:41:49.409Z,72.70
2018-05-04T05:44:18.454Z,77.47
2018-05-04T05:46:46.864Z,83.77
2018-05-04T05:49:15.144Z,86.50
2018-05-04T05:51:43.520Z,85.83
2018-05-04T05:54:11.966Z,87.70
2018-05-04T05:56:40.290Z,86.37
2018-05-04T05:59:08.778Z,89.70
2018-05-04T06:01:37.058Z,91.77
2018-05-04T06:04:05.799Z,84.80
2018-05-04T06:06:34.481Z,83.73
2018-05-04T06:09:02.897Z,79.03
2018-05-04T06:11:31.229Z,82.90
2018-05-04T06:13:59.562Z,83.80
2018-05-04T06:16:28.610Z,80.80
2018-05-04T06:18:57.015Z,76.80
2018-05-04T06:21:25.370Z,75.73
2018-05-04T06:23:53.696Z,75.23
2018-05-04T06:26:22.922Z,70.80
2018-05-04T06:28:51.431Z,72.60
2018-05-04T06:31:19.745Z,75.83
2018-05-04T06:33:48.605Z,76.07
2018-05-04T06:36:16.807Z,77.57
2018-05-04T06:38:45.129Z,70.77
2018-05-04T06:41:13.659Z,76.70
2018-05-04T06:43:42.015Z,72.10
2018-05-04T06:46:10.418Z,68.23
2018-05-04T06:48:38.797Z,57.10
2018-05-04T06:51:07.151Z,35.87
2018-05-04T06:53:35.422Z,26.43
2018-05-04T06:56:03.900Z,34.03
2018-05-04T06:58:32.529Z,36.50
2018-05-04T07:01:00.975Z,40.07
2018-05-04T07:03:29.255Z,40.93
2018-05-04T07:05:57.517Z,40.20
2018-05-04T07:08:25.789Z,37.97
2018-05-04T07:10:54.162Z,38.43
2018-05-04T07:13:22.560Z,39.17
2018-05-04T07:15:50.961Z,38.27
2018-05-04T07:18:19.277Z,37.97
2018-05-04T07:20:48.642Z,37.33
2018-05-04T07:23:17.023Z,35.67
2018-05-04T07:25:46.068Z,33.37
2018-05-04T07:28:15.740Z,33.30
2018-05-04T07:30:43.993Z,33.03
2018-05-04T07:33:12.354Z,32.17
2018-05-04T07:35:40.735Z,32.33
2018-05-04T07:38:09.011Z,33.07
2018-05-04T07:40:37.281Z,32.47
2018-05-04T07:43:05.628Z,33.33
2018-05-04T07:45:33.966Z,30.70
2018-05-04T07:48:02.278Z,30.90
2018-05-04T07:50:31.329Z,31.27
2018-05-04T07:52:59.609Z,30.60
2018-05-04T07:55:28.133Z,31.40
2018-05-04T07:57:56.386Z,32.30
2018-05-04T08:00:24.656Z,31.50
2018-05-04T08:02:52.953Z,30.70
2018-05-04T08:05:21.316Z,29.70
2018-05-04T08:07:50.583Z,29.77
2018-05-04T08:10:18.982Z,29.23
2018-05-04T08:12:47.359Z,27.30
2018-05-04T08:15:15.742Z,27.80
2018-05-04T08:17:44.056Z,28.03
2018-05-04T08:20:12.488Z,28.73
2018-05-04T08:22:40.826Z,28.23
2018-05-04T08:25:09.197Z,29.07
2018-05-04T08:27:38.234Z,22.23
2018-05-04T08:30:06.878Z,17.53
2018-05-04T08:32:35.230Z,7.60
2018-05-04T08:35:03.629Z,6.07
2018-05-04T08:37:32.064Z,7.83
2018-05-04T08:40:00.331Z,10.63
2018-05-04T08:42:28.834Z,12.20
2018-05-04T08:44:57.125Z,14.13
2018-05-04T08:47:25.508Z,16.33
2018-05-04T08:49:53.951Z,18.53
2018-05-04T08:52:22.269Z,17.43
2018-05-04T08:54:50.706Z,15.57
2018-05-04T08:57:19.053Z,15.43
2018-05-04T08:59:47.280Z,15.40
2018-05-04T09:02:15.525Z,16.93
2018-05-04T09:04:43.914Z,15.70
2018-05-04T09:07:12.316Z,16.40
2018-05-04T09:09:40.673Z,15.77
2018-05-04T09:12:09.098Z,15.47
2018-05-04T09:14:37.366Z,15.27
2018-05-04T09:17:05.826Z,15.40
2018-05-04T09:19:34.135Z,13.33
2018-05-04T09:22:03.165Z,11.50
2018-05-04T09:24:31.587Z,10.67
2018-05-04T09:26:59.871Z,11.30
2018-05-04T09:29:28.286Z,11.40
2018-05-04T09:31:57.317Z,11.40
2018-05-04T09:34:25.652Z,10.60
2018-05-04T09:36:54.118Z,10.87
2018-05-04T09:39:22.399Z,10.90
2018-05-04T09:41:51.129Z,10.57
2018-05-04T09:44:19.548Z,10.33
2018-05-04T09:46:47.838Z,10.10
2018-05-04T09:49:16.910Z,10.13
2018-05-04T09:51:45.184Z,10.30
2018-05-04T09:54:13.910Z,10.40
2018-05-04T09:56:42.961Z,9.10
2018-05-04T09:59:11.243Z,9.13
2018-05-04T10:01:39.646Z,9.40
2018-05-04T10:04:08.040Z,10.67
2018-05-04T10:06:37.083Z,10.17
2018-05-04T10:09:05.383Z,9.30
2018-05-04T10:11:33.634Z,8.40
2018-05-04T10:14:02.158Z,9.77
2018-05-04T10:16:30.894Z,9.00
2018-05-04T10:18:59.294Z,9.07
2018-05-04T10:21:27.617Z,9.03
2018-05-04T10:23:56.077Z,23.30
2018-05-04T10:26:24.417Z,16.27
2018-05-04T10:28:52.717Z,20.30
2018-05-04T10:31:21.189Z,19.00
2018-05-04T10:33:49.898Z,17.13
2018-05-04T10:36:18.258Z,14.23
2018-05-04T10:38:46.618Z,13.80
2018-05-04T10:41:14.813Z,11.73
2018-05-04T10:43:43.374Z,12.40
2018-05-04T10:46:11.775Z,11.33
2018-05-04T10:48:40.063Z,9.70
2018-05-04T10:51:08.543Z,8.67
2018-05-04T10:53:36.850Z,9.47
2018-05-04T10:56:05.294Z,9.03
2018-05-04T10:58:33.589Z,8.47
2018-05-04T11:01:02.330Z,8.97
2018-05-04T11:03:30.600Z,8.07
2018-05-04T11:05:59.050Z,7.63
2018-05-04T11:08:27.493Z,7.77
2018-05-04T11:10:55.791Z,7.60
2018-05-04T11:13:24.491Z,7.20
2018-05-04T11:15:53.518Z,6.83
2018-05-04T11:18:21.793Z,6.37
2018-05-04T11:20:50.062Z,7.23
2018-05-04T11:23:18.341Z,6.83
2018-05-04T11:25:47.896Z,6.93
2018-05-04T11:28:16.299Z,5.80
2018-05-04T11:30:44.727Z,5.83
2018-05-04T11:33:13.233Z,6.53
2018-05-04T11:35:41.513Z,5.23
2018-05-04T11:38:09.890Z,5.90
2018-05-04T11:40:38.185Z,5.13
2018-05-04T11:43:06.637Z,4.97
2018-05-04T11:45:34.902Z,5.77
2018-05-04T11:48:03.187Z,4.80
2018-05-04T11:50:33.002Z,4.57
2018-05-04T11:53:01.368Z,4.53
2018-05-04T11:55:29.710Z,5.20
2018-05-04T11:57:57.961Z,4.80
2018-05-04T12:00:26.474Z,4.57
2018-05-04T12:02:54.882Z,5.27
2018-05-04T12:05:23.511Z,5.30
2018-05-04T12:07:52.267Z,5.07
2018-05-04T12:10:20.625Z,5.43
2018-05-04T12:12:48.895Z,5.63
2018-05-04T12:15:17.158Z,6.23
2018-05-04T12:17:46.338Z,5.50
2018-05-04T12:20:15.369Z,5.33
2018-05-04T12:22:43.773Z,5.03
2018-05-04T12:25:12.086Z,5.13
2018-05-04T12:27:41.151Z,5.13
2018-05-04T12:30:09.553Z,5.10
2018-05-04T12:32:37.902Z,4.50
2018-05-04T12:35:06.243Z,5.30
2018-05-04T12:37:34.899Z,5.20
2018-05-04T12:40:03.170Z,4.97
2018-05-04T12:42:31.710Z,5.23
2018-05-04T12:45:00.108Z,4.87
2018-05-04T12:47:28.463Z,4.97
2018-05-04T12:49:56.797Z,4.70
2018-05-04T12:52:25.842Z,4.87
2018-05-04T12:54:54.251Z,4.60
2018-05-04T12:57:22.582Z,5.27
2018-05-04T12:59:50.951Z,4.50
2018-05-04T13:02:19.359Z,4.43
2018-05-04T13:04:47.974Z,4.50
2018-05-04T13:07:16.451Z,3.13
2018-05-04T13:09:44.798Z,3.50
2018-05-04T13:12:13.498Z,4.20
2018-05-04T13:14:42.187Z,3.83
2018-05-04T13:17:10.592Z,3.73
2018-05-04T13:19:38.883Z,3.80
2018-05-04T13:22:07.289Z,3.33
2018-05-04T13:24:35.686Z,4.27
2018-05-04T13:27:03.979Z,3.97
2018-05-04T13:29:32.241Z,3.80
2018-05-04T13:32:00.541Z,3.23
2018-05-04T13:34:28.898Z,3.50
2018-05-04T13:36:57.517Z,3.50
2018-05-04T13:39:25.872Z,3.30
2018-05-04T13:41:54.359Z,2.63
2018-05-04T13:44:22.728Z,3.27
2018-05-04T13:46:51.110Z,3.53
2018-05-04T13:49:19.512Z,3.50
2018-05-04T13:51:47.858Z,3.07
2018-05-04T13:54:16.494Z,3.30
2018-05-04T13:56:44.753Z,2.83
2018-05-04T13:59:13.022Z,3.07
2018-05-04T14:01:41.394Z,3.70
2018-05-04T14:04:09.670Z,3.23
2018-05-04T14:06:38.149Z,3.37
2018-05-04T14:09:06.459Z,2.70
2018-05-04T14:11:34.892Z,2.77
2018-05-04T14:14:03.289Z,2.43
2018-05-04T14:16:31.589Z,2.53
2018-05-04T14:19:00.078Z,3.03
2018-05-04T14:21:28.317Z,2.40
2018-05-04T14:23:56.798Z,2.60
2018-05-04T14:26:25.167Z,2.33
2018-05-04T14:28:53.573Z,2.67
2018-05-04T14:31:21.833Z,2.53
2018-05-04T14:33:50.305Z,2.40
2018-05-04T14:36:18.937Z,2.47
2018-05-04T14:38:47.410Z,2.50
2018-05-04T14:41:16.668Z,2.03
2018-05-04T14:43:45.111Z,2.60
2018-05-04T14:46:13.426Z,2.43
2018-05-04T14:48:41.830Z,2.37
2018-05-04T14:51:10.523Z,2.30
2018-05-04T14:53:38.868Z,2.20
2018-05-04T14:56:07.139Z,2.20
2018-05-04T14:58:35.653Z,2.07
2018-05-04T15:01:04.027Z,2.20
2018-05-04T15:03:32.639Z,2.10
2018-05-04T15:06:01.085Z,1.90
2018-05-04T15:08:29.394Z,2.20
2018-05-04T15:10:57.867Z,2.20
2018-05-04T15:13:26.121Z,2.03
2018-05-04T15:15:54.469Z,2.23
2018-05-04T15:18:22.663Z,1.80
2018-05-04T15:20:51.342Z,2.67
2018-05-04T15:23:19.739Z,2.13
2018-05-04T15:25:48.106Z,2.27
2018-05-04T15:28:16.492Z,2.00
2018-05-04T15:30:44.759Z,1.90
2018-05-04T15:33:13.458Z,2.10
2018-05-04T15:35:41.733Z,2.20
2018-05-04T15:38:10.306Z,2.00
2018-05-04T15:40:38.994Z,2.20
2018-05-04T15:43:07.350Z,2.43
2018-05-04T15:45:35.753Z,2.50
2018-05-04T15:48:09.865Z,2.27
2018-05-04T15:50:43.829Z,2.50
2018-05-04T15:53:12.866Z,3.63
2018-05-04T15:55:41.578Z,3.07
2018-05-04T15:58:09.955Z,2.30
2018-05-04T16:00:38.322Z,2.60
2018-05-04T16:03:06.583Z,2.57
2018-05-04T16:05:35.077Z,2.23
2018-05-04T16:08:03.480Z,2.10
2018-05-04T16:10:31.742Z,1.97
2018-05-04T16:13:00.155Z,2.33
2018-05-04T16:15:28.602Z,2.23
2018-05-04T16:17:56.905Z,2.27
2018-05-04T16:20:25.346Z,2.07
2018-05-04T16:22:53.621Z,2.00
2018-05-04T16:25:22.129Z,2.30
2018-05-04T16:27:50.429Z,2.07
2018-05-04T16:30:19.585Z,2.37
2018-05-04T16:32:47.871Z,2.00
2018-05-04T16:35:16.272Z,2.17
2018-05-04T16:37:46.294Z,2.33
2018-05-04T16:40:31.935Z,1.97
2018-05-04T16:43:04.522Z,2.20
2018-05-04T16:45:36.294Z,1.83
2018-05-04T16:48:13.465Z,2.20
2018-05-04T16:50:42.145Z,38.10
2018-05-04T16:53:11.681Z,58.03
2018-05-04T16:55:40.615Z,83.07
2018-05-04T16:58:08.887Z,75.23
2018-05-04T17:00:47.192Z,72.73
2018-05-04T17:03:37.504Z,81.20
2018-05-04T17:06:07.437Z,77.20
2018-05-04T17:08:50.114Z,77.07
2018-05-04T17:11:18.394Z,74.23
2018-05-04T17:13:46.741Z,72.40
2018-05-04T17:16:15.058Z,71.40
2018-05-04T17:18:43.477Z,69.83
2018-05-04T17:21:11.891Z,67.30
2018-05-04T17:23:40.194Z,66.67
2018-05-04T17:26:08.642Z,65.73
2018-05-04T17:28:37.014Z,65.30
2018-05-04T17:31:05.443Z,65.53
2018-05-04T17:33:33.721Z,64.90
2018-05-04T17:36:02.098Z,61.37
2018-05-04T17:38:30.443Z,60.50
2018-05-04T17:40:58.858Z,59.37
2018-05-04T17:43:27.533Z,60.53
2018-05-04T17:45:56.214Z,60.43
2018-05-04T17:51:09.913Z,55.17
2018-05-04T17:53:38.542Z,57.57
2018-05-04T17:56:07.226Z,54.70
2018-05-04T17:58:35.927Z,56.70
2018-05-04T18:01:04.985Z,53.67
2018-05-04T18:03:33.261Z,55.07
2018-05-04T18:06:01.553Z,57.13
2018-05-04T18:08:30.039Z,53.93
2018-05-04T18:10:58.484Z,54.90
2018-05-04T18:13:26.912Z,45.83
2018-05-04T18:15:55.241Z,48.80
2018-05-04T18:18:23.618Z,47.23
2018-05-04T18:20:51.954Z,43.13
2018-05-04T18:23:21.010Z,42.17
2018-05-04T18:25:49.284Z,40.77
2018-05-04T18:28:18.439Z,40.63
2018-05-04T18:30:46.973Z,38.23
2018-05-04T18:33:16.205Z,38.47
2018-05-04T18:35:44.518Z,36.67
2018-05-04T18:38:12.815Z,35.13
2018-05-04T18:40:41.185Z,33.43
2018-05-04T18:43:09.557Z,30.60
2018-05-04T18:45:37.873Z,32.37
2018-05-04T18:48:06.582Z,29.50
2018-05-04T18:50:35.922Z,27.10
2018-05-04T18:53:04.351Z,28.67
2018-05-04T18:55:32.638Z,28.03
2018-05-04T18:58:01.015Z,26.47
2018-05-04T19:00:30.060Z,25.80
2018-05-04T19:03:04.111Z,24.40
2018-05-04T19:05:32.629Z,24.67
2018-05-04T19:08:01.089Z,22.73
2018-05-04T19:10:29.369Z,23.47
2018-05-04T19:12:57.747Z,22.57
2018-05-04T19:15:26.206Z,21.77
2018-05-04T19:17:54.550Z,22.47
2018-05-04T19:20:22.933Z,21.53
2018-05-04T19:22:51.264Z,19.13
2018-05-04T19:25:20.302Z,18.87
2018-05-04T19:27:48.581Z,19.27
2018-05-04T19:30:16.957Z,18.30
2018-05-04T19:32:46.054Z,16.13
2018-05-04T19:35:14.421Z,17.73
2018-05-04T19:37:42.832Z,17.30
2018-05-04T19:40:11.151Z,16.47
2018-05-04T19:42:39.623Z,15.93
2018-05-04T19:45:07.892Z,16.50
2018-05-04T19:47:36.952Z,15.13
2018-05-04T19:50:05.323Z,14.93
2018-05-04T19:52:33.603Z,14.47
2018-05-04T19:55:01.871Z,13.63
2018-05-04T19:57:30.237Z,14.23
2018-05-04T19:59:58.521Z,13.23
2018-05-04T20:02:26.905Z,13.20
2018-05-04T20:04:55.301Z,12.00
2018-05-04T20:07:23.578Z,12.47
2018-05-04T20:09:51.872Z,12.13
2018-05-04T20:12:20.361Z,11.60
2018-05-04T20:14:48.676Z,12.23
2018-05-04T20:17:16.951Z,10.93
2018-05-04T20:19:45.254Z,10.97
2018-05-04T20:22:13.921Z,11.00
2018-05-04T20:24:42.189Z,10.57
2018-05-04T20:27:10.471Z,10.20
2018-05-04T20:29:38.785Z,11.43
2018-05-04T20:32:07.181Z,9.13
2018-05-04T20:34:35.482Z,9.77
2018-05-04T20:37:03.878Z,9.97
2018-05-04T20:39:32.153Z,10.07
2018-05-04T20:42:00.658Z,9.00
2018-05-04T20:44:29.075Z,8.90
2018-05-04T20:46:57.429Z,9.67
2018-05-04T20:49:25.829Z,9.00
2018-05-04T20:51:54.199Z,9.57
2018-05-04T20:54:22.567Z,9.57
2018-05-04T20:56:50.937Z,7.73
2018-05-04T20:59:19.223Z,9.40
2018-05-04T21:01:47.668Z,8.10
2018-05-04T21:04:16.713Z,8.43
2018-05-04T21:06:45.019Z,8.30
2018-05-04T21:09:14.061Z,8.37
2018-05-04T21:11:42.463Z,7.83
2018-05-04T21:14:10.728Z,8.13
2018-05-04T21:16:38.993Z,6.80
2018-05-04T21:19:07.278Z,8.00
2018-05-04T21:21:35.671Z,7.43
2018-05-04T21:24:03.975Z,6.50
2018-05-04T21:26:32.425Z,7.13
2018-05-04T21:29:00.731Z,7.13
2018-05-04T21:31:29.001Z,7.20
2018-05-04T21:33:57.563Z,6.30
2018-05-04T21:36:25.984Z,5.93
2018-05-04T21:38:54.284Z,7.07
2018-05-04T21:41:22.558Z,6.60
2018-05-04T21:43:50.826Z,6.23
2018-05-04T21:46:19.094Z,5.73
2018-05-04T21:48:48.452Z,5.40
2018-05-04T21:51:16.826Z,5.90
2018-05-04T21:53:45.094Z,5.80
2018-05-04T21:56:13.523Z,4.93
2018-05-04T21:58:42.557Z,5.70
2018-05-04T22:01:10.947Z,4.57
2018-05-04T22:03:39.313Z,5.40
2018-05-04T22:06:07.799Z,5.60
2018-05-04T22:08:36.107Z,4.93
2018-05-04T22:11:04.374Z,4.63
2018-05-04T22:13:32.890Z,4.37
2018-05-04T22:16:01.235Z,4.47
2018-05-04T22:18:29.641Z,4.30
2018-05-04T22:20:57.922Z,4.27
2018-05-04T22:23:26.304Z,3.77
2018-05-04T22:25:54.731Z,4.17
2018-05-04T22:28:23.051Z,3.50
2018-05-04T22:30:51.314Z,3.77
2018-05-04T22:33:19.839Z,3.77
2018-05-04T22:35:48.979Z,3.70
2018-05-04T22:38:17.261Z,3.67
2018-05-04T22:40:45.517Z,3.60
2018-05-04T22:43:13.802Z,3.43
2018-05-04T22:45:42.342Z,3.43
2018-05-04T22:48:10.775Z,3.30
2018-05-04T22:50:39.038Z,3.33
2018-05-04T22:53:07.517Z,3.30
2018-05-04T22:55:35.894Z,3.57
2018-05-04T22:58:04.287Z,3.37
2018-05-04T23:00:32.653Z,3.30
2018-05-04T23:03:00.937Z,3.53
2018-05-04T23:05:29.398Z,3.23
2018-05-04T23:07:58.040Z,3.13
2018-05-04T23:10:26.481Z,3.17
2018-05-04T23:12:54.751Z,2.67
2018-05-04T23:15:23.025Z,3.20
2018-05-04T23:17:51.306Z,2.70
2018-05-04T23:20:19.707Z,3.10
2018-05-04T23:22:48.047Z,3.20
2018-05-04T23:25:16.462Z,3.10
2018-05-04T23:27:44.814Z,2.90
2018-05-04T23:30:12.993Z,2.93
2018-05-04T23:32:41.285Z,2.87
2018-05-04T23:35:09.650Z,2.63
2018-05-04T23:37:38.067Z,2.77
2018-05-04T23:40:06.434Z,2.90
2018-05-04T23:42:34.811Z,2.60
2018-05-04T23:45:03.181Z,2.70
2018-05-04T23:47:32.304Z,2.73
2018-05-04T23:50:00.581Z,2.90
2018-05-04T23:52:28.951Z,2.87
2018-05-04T23:54:57.242Z,2.73
2018-05-04T23:57:26.021Z,2.57
2018-05-04T23:59:54.367Z,2.57
